createdAt,value
2019-05-06T00:01:14.911Z,10.93
2019-05-06T00:03:43.540Z,13.05
2019-05-06T00:06:14.396Z,9.85
2019-05-06T00:08:43.951Z,11.35
2019-05-06T00:11:14.218Z,10.28
2019-05-06T00:13:44.574Z,9.75
2019-05-06T00:16:14.364Z,10.25
2019-05-06T00:18:44.932Z,8.83
2019-05-06T00:21:14.775Z,9.23
2019-05-06T00:23:51.052Z,9.33
2019-05-06T00:26:37.680Z,9.53
2019-05-06T00:29:11.148Z,11.08
2019-05-06T00:31:39.914Z,8.93
2019-05-06T00:34:08.693Z,10.38
2019-05-06T00:36:37.452Z,9.38
2019-05-06T00:39:09.326Z,9.30
2019-05-06T00:41:38.092Z,9.98
2019-05-06T00:44:06.872Z,10.13
2019-05-06T00:46:35.632Z,9.98
2019-05-06T00:49:04.395Z,8.95
2019-05-06T00:51:33.877Z,10.75
2019-05-06T00:54:16.585Z,11.63
2019-05-06T00:56:45.359Z,10.13
2019-05-06T00:59:14.447Z,10.20
2019-05-06T01:01:43.591Z,7.35
2019-05-06T01:04:13.903Z,8.85
2019-05-06T01:06:44.073Z,9.43
2019-05-06T01:09:14.601Z,9.48
2019-05-06T01:11:44.911Z,8.28
2019-05-06T01:14:15.296Z,8.43
2019-05-06T01:16:44.091Z,7.47
2019-05-06T01:19:14.161Z,10.05
2019-05-06T01:21:44.705Z,7.85
2019-05-06T01:24:14.716Z,8.38
2019-05-06T01:26:44.398Z,9.60
2019-05-06T01:29:14.560Z,11.25
2019-05-06T01:31:45.915Z,8.85
2019-05-06T01:34:13.900Z,7.42
2019-05-06T01:36:43.765Z,9.90
2019-05-06T01:39:16.817Z,10.65
2019-05-06T01:41:50.140Z,8.25
2019-05-06T01:44:19.005Z,8.73
2019-05-06T01:46:47.776Z,8.08
2019-05-06T01:49:16.538Z,8.38
2019-05-06T01:51:45.308Z,8.55
2019-05-06T01:54:14.318Z,7.53
2019-05-06T01:56:44.478Z,10.23
2019-05-06T01:59:13.953Z,6.97
2019-05-06T02:01:54.756Z,8.13
2019-05-06T02:04:13.952Z,7.92
2019-05-06T02:06:43.776Z,9.43
2019-05-06T02:09:15.502Z,8.03
2019-05-06T02:11:47.631Z,7.40
2019-05-06T02:14:14.692Z,8.23
2019-05-06T02:16:43.712Z,11.70
2019-05-06T02:19:14.544Z,8.25
2019-05-06T02:21:44.522Z,6.92
2019-05-06T02:24:14.854Z,7.53
2019-05-06T02:26:43.796Z,8.63
2019-05-06T02:29:15.209Z,7.60
2019-05-06T02:32:17.133Z,6.37
2019-05-06T02:34:38.178Z,7.75
2019-05-06T02:37:11.269Z,9.38
2019-05-06T02:39:40.025Z,9.63
2019-05-06T02:42:08.889Z,7.45
2019-05-06T02:44:37.650Z,6.53
2019-05-06T02:47:07.985Z,7.83
2019-05-06T02:49:47.377Z,7.80
2019-05-06T02:52:16.143Z,8.10
2019-05-06T02:54:44.901Z,14.40
2019-05-06T02:57:13.674Z,7.17
2019-05-06T02:59:44.177Z,7.47
2019-05-06T03:02:13.962Z,9.13
2019-05-06T03:04:43.722Z,10.45
2019-05-06T03:07:14.611Z,6.90
2019-05-06T03:09:44.582Z,8.98
2019-05-06T03:12:13.874Z,10.08
2019-05-06T03:14:43.614Z,9.10
2019-05-06T03:17:14.011Z,7.15
2019-05-06T03:19:46.069Z,10.28
2019-05-06T03:22:19.649Z,9.80
2019-05-06T03:24:49.979Z,7.08
2019-05-06T03:27:18.746Z,5.70
2019-05-06T03:29:47.592Z,7.78
2019-05-06T03:32:23.109Z,7.62
2019-05-06T03:35:13.799Z,8.80
2019-05-06T03:37:17.688Z,7.80
2019-05-06T03:39:46.428Z,7.35
2019-05-06T03:42:16.590Z,7.47
2019-05-06T03:44:47.245Z,10.18
2019-05-06T03:47:34.433Z,9.45
2019-05-06T03:50:04.778Z,6.83
2019-05-06T03:52:34.302Z,8.68
2019-05-06T03:55:03.960Z,6.87
2019-05-06T03:57:36.124Z,7.12
2019-05-06T04:00:04.978Z,7.12
2019-05-06T04:02:34.046Z,8.93
2019-05-06T04:05:03.862Z,9.18
2019-05-06T04:07:34.180Z,8.15
2019-05-06T04:10:03.751Z,8.60
2019-05-06T04:12:34.508Z,8.50
2019-05-06T04:15:04.278Z,13.22
2019-05-06T04:17:46.621Z,11.83
2019-05-06T04:20:17.030Z,10.13
2019-05-06T04:22:47.672Z,32.83
2019-05-06T04:25:43.446Z,10.38
2019-05-06T04:28:13.917Z,9.13
2019-05-06T04:30:43.134Z,9.40
2019-05-06T04:33:16.926Z,14.03
2019-05-06T04:35:43.114Z,11.60
2019-05-06T04:38:13.873Z,6.55
2019-05-06T04:40:43.954Z,9.45
2019-05-06T04:43:13.542Z,8.50
2019-05-06T04:45:43.291Z,14.93
2019-05-06T04:48:14.420Z,11.63
2019-05-06T04:50:44.457Z,14.68
2019-05-06T04:53:13.981Z,14.30
2019-05-06T04:55:43.795Z,16.07
2019-05-06T04:58:13.582Z,15.05
2019-05-06T05:00:44.578Z,12.23
2019-05-06T05:03:14.076Z,13.43
2019-05-06T05:05:44.788Z,16.97
2019-05-06T05:09:56.968Z,21.07
2019-05-06T05:12:33.693Z,14.95
2019-05-06T05:15:04.248Z,14.63
2019-05-06T05:17:34.688Z,14.43
2019-05-06T05:20:04.057Z,11.80
2019-05-06T05:22:33.408Z,11.97
2019-05-06T05:25:03.491Z,13.55
2019-05-06T05:27:32.975Z,10.38
2019-05-06T05:30:02.199Z,9.78
2019-05-06T05:32:32.140Z,7.72
2019-05-06T05:35:02.064Z,8.30
2019-05-06T05:37:32.830Z,10.45
2019-05-06T05:40:03.055Z,10.45
2019-05-06T05:42:42.460Z,8.13
2019-05-06T05:45:12.855Z,10.70
2019-05-06T05:47:42.503Z,9.50
2019-05-06T05:50:13.335Z,10.80
2019-05-06T05:52:42.797Z,9.23
2019-05-06T05:55:12.449Z,9.50
2019-05-06T05:57:43.196Z,10.58
2019-05-06T06:00:12.894Z,8.43
2019-05-06T06:02:43.765Z,11.88
2019-05-06T06:05:12.588Z,9.35
2019-05-06T06:07:42.557Z,6.97
2019-05-06T06:10:22.452Z,9.65
2019-05-06T06:12:52.805Z,7.10
2019-05-06T06:15:32.933Z,8.65
2019-05-06T06:18:19.836Z,6.67
2019-05-06T06:20:50.172Z,9.25
2019-05-06T06:23:26.376Z,8.13
2019-05-06T06:25:55.757Z,6.80
2019-05-06T06:28:24.604Z,8.38
2019-05-06T06:30:54.940Z,9.58
2019-05-06T06:33:23.814Z,8.18
2019-05-06T06:35:54.162Z,6.78
2019-05-06T06:38:24.495Z,6.42
2019-05-06T06:40:55.639Z,4.92
2019-05-06T06:43:25.448Z,8.68
2019-05-06T06:45:54.311Z,6.45
2019-05-06T06:48:23.280Z,5.75
2019-05-06T06:50:53.139Z,6.78
2019-05-06T06:53:21.932Z,4.95
2019-05-06T06:55:52.377Z,6.85
2019-05-06T06:58:25.981Z,7.92
2019-05-06T07:00:57.812Z,6.85
2019-05-06T07:03:28.649Z,6.00
2019-05-06T07:06:07.837Z,6.95
2019-05-06T07:08:37.745Z,9.10
2019-05-06T07:11:06.668Z,5.60
2019-05-06T07:13:35.629Z,6.50
2019-05-06T07:16:04.404Z,5.45
2019-05-06T07:18:33.316Z,6.35
2019-05-06T07:21:05.300Z,6.15
2019-05-06T07:23:37.223Z,6.53
2019-05-06T07:26:06.000Z,10.00
2019-05-06T07:28:34.960Z,8.30
2019-05-06T07:31:17.617Z,6.70
2019-05-06T07:33:34.144Z,12.95
2019-05-06T07:36:02.922Z,6.97
2019-05-06T07:38:32.541Z,8.00
2019-05-06T07:41:04.508Z,8.90
2019-05-06T07:43:38.053Z,6.25
2019-05-06T07:46:08.392Z,6.75
2019-05-06T07:48:37.152Z,7.30
2019-05-06T07:51:05.920Z,7.28
2019-05-06T07:53:34.686Z,8.63
2019-05-06T07:56:03.728Z,6.85
2019-05-06T07:58:32.527Z,6.60
2019-05-06T08:01:02.615Z,6.03
2019-05-06T08:03:32.971Z,9.15
2019-05-06T08:06:02.756Z,7.25
2019-05-06T08:08:33.762Z,6.83
2019-05-06T08:11:02.697Z,6.65
2019-05-06T08:13:32.297Z,8.85
2019-05-06T08:16:02.218Z,6.60
2019-05-06T08:18:33.055Z,9.35
2019-05-06T08:21:03.096Z,9.30
2019-05-06T08:23:33.428Z,8.58
2019-05-06T08:26:11.663Z,6.95
2019-05-06T08:28:41.019Z,8.05
2019-05-06T08:31:03.026Z,9.20
2019-05-06T08:33:32.728Z,10.05
2019-05-06T08:36:11.718Z,10.43
2019-05-06T08:38:35.119Z,8.93
2019-05-06T08:41:03.877Z,9.58
2019-05-06T08:43:32.731Z,10.35
2019-05-06T08:46:03.240Z,12.90
2019-05-06T08:48:32.482Z,12.43
2019-05-06T08:51:03.035Z,14.87
2019-05-06T08:53:36.308Z,18.15
2019-05-06T08:56:06.376Z,16.23
2019-05-06T08:58:48.779Z,15.93
2019-05-06T09:01:24.077Z,15.58
2019-05-06T09:04:06.435Z,17.70
2019-05-06T09:06:29.903Z,20.57
2019-05-06T09:08:56.714Z,23.30
2019-05-06T09:11:25.877Z,22.07
2019-05-06T09:13:54.737Z,22.42
2019-05-06T09:16:23.501Z,24.18
2019-05-06T09:18:53.388Z,23.55
2019-05-06T09:21:22.731Z,21.07
2019-05-06T09:23:53.112Z,21.12
2019-05-06T09:26:23.651Z,25.72
2019-05-06T09:28:56.936Z,21.30
2019-05-06T09:31:27.280Z,23.22
2019-05-06T09:34:03.324Z,25.80
2019-05-06T09:36:41.205Z,21.77
2019-05-06T09:39:02.517Z,21.42
2019-05-06T09:41:32.448Z,25.30
2019-05-06T09:44:03.086Z,21.93
2019-05-06T09:46:32.235Z,20.68
2019-05-06T09:49:05.612Z,22.42
2019-05-06T09:51:36.154Z,23.18
2019-05-06T09:54:23.649Z,22.05
2019-05-06T09:56:53.820Z,20.88
2019-05-06T09:59:22.688Z,23.25
2019-05-06T10:01:55.118Z,21.97
2019-05-06T10:04:23.976Z,19.90
2019-05-06T10:06:59.079Z,21.35
2019-05-06T10:09:24.908Z,22.35
2019-05-06T10:11:53.592Z,18.80
2019-05-06T10:14:23.405Z,22.90
2019-05-06T10:16:52.532Z,18.27
2019-05-06T10:19:22.693Z,21.23
2019-05-06T10:21:53.027Z,17.42
2019-05-06T10:24:21.898Z,18.52
2019-05-06T10:26:52.430Z,15.50
2019-05-06T10:29:22.772Z,16.67
2019-05-06T10:31:59.140Z,12.90
2019-05-06T10:34:27.920Z,8.80
2019-05-06T10:37:15.406Z,6.33
2019-05-06T10:39:43.303Z,9.18
2019-05-06T10:42:15.006Z,12.50
2019-05-06T10:45:04.834Z,7.55
2019-05-06T10:47:33.603Z,27.20
2019-05-06T10:50:02.383Z,8.95
2019-05-06T10:52:33.289Z,7.50
2019-05-06T10:55:03.370Z,6.87
2019-05-06T10:57:40.463Z,7.42
2019-05-06T11:00:12.112Z,8.83
2019-05-06T11:02:52.271Z,7.25
2019-05-06T11:05:20.688Z,7.45
2019-05-06T11:07:49.448Z,11.85
2019-05-06T11:10:27.045Z,7.90
2019-05-06T11:12:48.628Z,5.75
2019-05-06T11:15:17.605Z,6.37
2019-05-06T11:17:46.474Z,6.80
2019-05-06T11:20:15.550Z,8.48
2019-05-06T11:22:44.308Z,8.33
2019-05-06T11:25:13.784Z,7.80
2019-05-06T11:27:45.151Z,9.53
2019-05-06T11:30:21.854Z,7.92
2019-05-06T11:33:04.935Z,5.55
2019-05-06T11:35:44.416Z,7.50
2019-05-06T11:38:14.753Z,7.92
2019-05-06T11:40:43.536Z,4.42
2019-05-06T11:43:12.300Z,4.78
2019-05-06T11:45:42.758Z,5.35
2019-05-06T11:48:14.275Z,6.20
2019-05-06T11:50:43.979Z,4.12
2019-05-06T11:53:12.743Z,4.67
2019-05-06T11:55:41.513Z,4.90
2019-05-06T11:58:28.156Z,4.22
2019-05-06T12:00:57.988Z,4.25
2019-05-06T12:03:26.859Z,3.83
2019-05-06T12:05:55.647Z,4.85
2019-05-06T12:08:24.594Z,4.28
2019-05-06T12:10:53.367Z,3.58
2019-05-06T12:13:22.977Z,6.33
2019-05-06T12:15:52.507Z,6.20
2019-05-06T12:18:23.144Z,4.47
2019-05-06T12:20:52.768Z,4.75
2019-05-06T12:23:22.399Z,4.70
2019-05-06T12:25:52.949Z,4.28
2019-05-06T12:28:21.767Z,3.83
2019-05-06T12:30:52.434Z,2.90
2019-05-06T12:33:28.243Z,5.35
2019-05-06T12:35:58.568Z,3.80
2019-05-06T12:38:30.826Z,5.53
2019-05-06T12:40:59.950Z,3.55
2019-05-06T12:43:30.560Z,2.35
2019-05-06T12:46:03.678Z,10.05
2019-05-06T12:48:46.283Z,3.83
2019-05-06T12:51:15.114Z,3.47
2019-05-06T12:53:43.904Z,2.90
2019-05-06T12:56:12.668Z,3.15
2019-05-06T12:58:44.000Z,2.62
2019-05-06T13:01:13.949Z,2.50
2019-05-06T13:03:43.363Z,2.75
2019-05-06T13:06:12.951Z,3.15
2019-05-06T13:08:56.828Z,6.03
2019-05-06T13:11:13.188Z,3.92
2019-05-06T13:13:56.744Z,4.42
2019-05-06T13:16:12.720Z,5.97
2019-05-06T13:18:46.993Z,3.42
2019-05-06T13:21:12.744Z,3.90
2019-05-06T13:23:43.162Z,4.67
2019-05-06T13:26:12.888Z,18.05
2019-05-06T13:28:43.490Z,15.32
2019-05-06T13:31:20.427Z,13.00
2019-05-06T13:33:44.791Z,14.30
2019-05-06T13:36:13.815Z,8.58
2019-05-06T13:38:42.779Z,9.73
2019-05-06T13:41:12.714Z,13.08
2019-05-06T13:43:45.856Z,8.23
2019-05-06T13:46:16.192Z,10.80
2019-05-06T13:48:49.349Z,9.98
2019-05-06T13:51:23.039Z,8.08
2019-05-06T13:53:52.877Z,10.80
2019-05-06T13:56:21.848Z,7.90
2019-05-06T13:58:52.560Z,7.85
2019-05-06T14:01:23.317Z,9.63
2019-05-06T14:03:52.512Z,8.50
2019-05-06T14:06:21.372Z,10.15
2019-05-06T14:08:50.133Z,5.28
2019-05-06T14:11:18.924Z,8.30
2019-05-06T14:13:47.710Z,8.98
2019-05-06T14:16:16.780Z,8.28
2019-05-06T14:18:45.533Z,7.28
2019-05-06T14:21:14.312Z,10.55
2019-05-06T14:23:43.076Z,8.58
2019-05-06T14:26:22.951Z,6.58
2019-05-06T14:28:53.544Z,6.37
2019-05-06T14:31:32.523Z,10.20
2019-05-06T14:34:00.424Z,10.58
2019-05-06T14:36:29.201Z,10.08
2019-05-06T14:38:57.965Z,12.88
2019-05-06T14:41:27.587Z,10.78
2019-05-06T14:43:56.333Z,9.78
2019-05-06T14:46:25.201Z,9.18
2019-05-06T14:48:53.973Z,10.60
2019-05-06T14:51:22.737Z,12.00
2019-05-06T14:53:52.985Z,9.60
2019-05-06T14:56:29.380Z,11.08
2019-05-06T14:59:05.477Z,10.08
2019-05-06T15:01:35.387Z,11.15
2019-05-06T15:04:04.870Z,13.58
2019-05-06T15:06:33.720Z,12.78
2019-05-06T15:09:03.724Z,14.43
2019-05-06T15:11:32.631Z,15.58
2019-05-06T15:14:03.518Z,13.35
2019-05-06T15:16:33.717Z,13.75
2019-05-06T15:19:04.073Z,18.65
2019-05-06T15:21:37.918Z,15.98
2019-05-06T15:24:03.229Z,20.02
2019-05-06T15:26:33.413Z,16.32
2019-05-06T15:29:03.340Z,17.98
2019-05-06T15:31:45.643Z,19.32
2019-05-06T15:34:22.365Z,19.60
2019-05-06T15:37:02.360Z,19.67
2019-05-06T15:39:32.688Z,21.55
2019-05-06T15:42:01.452Z,20.60
2019-05-06T15:44:34.895Z,23.75
2019-05-06T15:47:03.251Z,21.77
2019-05-06T15:49:32.400Z,21.65
2019-05-06T15:52:03.657Z,24.02
2019-05-06T15:54:32.265Z,23.47
2019-05-06T15:57:01.059Z,25.25
2019-05-06T15:59:33.071Z,24.25
2019-05-06T16:02:01.898Z,25.90
2019-05-06T16:04:32.547Z,25.88
2019-05-06T16:07:02.832Z,24.15
2019-05-06T16:09:32.845Z,25.10
2019-05-06T16:12:03.103Z,23.30
2019-05-06T16:14:34.714Z,25.27
2019-05-06T16:17:02.409Z,24.80
2019-05-06T16:19:33.271Z,26.45
2019-05-06T16:22:03.927Z,24.50
2019-05-06T16:24:48.338Z,24.82
2019-05-06T16:27:17.103Z,26.07
2019-05-06T16:29:45.890Z,22.52
2019-05-06T16:32:14.660Z,23.20
2019-05-06T16:34:43.439Z,25.88
2019-05-06T16:37:12.745Z,23.05
2019-05-06T16:39:41.528Z,24.80
2019-05-06T16:42:12.892Z,23.45
2019-05-06T16:44:45.172Z,22.48
2019-05-06T16:47:13.601Z,23.30
2019-05-06T16:49:42.424Z,23.10
2019-05-06T16:52:12.999Z,22.25
2019-05-06T16:54:42.550Z,25.23
2019-05-06T16:57:15.671Z,20.17
2019-05-06T16:59:44.453Z,22.25
2019-05-06T17:02:14.787Z,20.12
2019-05-06T17:04:45.167Z,22.55
2019-05-06T17:07:13.940Z,20.55
2019-05-06T17:09:43.049Z,21.77
2019-05-06T17:12:12.851Z,24.15
2019-05-06T17:14:42.817Z,24.00
2019-05-06T17:17:11.831Z,25.12
2019-05-06T17:19:42.255Z,22.75
2019-05-06T17:22:12.360Z,67.25
2019-05-06T17:24:42.166Z,25.15
2019-05-06T17:27:12.109Z,22.48
2019-05-06T17:29:45.167Z,21.93
2019-05-06T17:32:15.516Z,26.30
2019-05-06T17:34:48.421Z,22.13
2019-05-06T17:37:37.005Z,19.50
2019-05-06T17:40:11.810Z,21.15
2019-05-06T17:42:38.695Z,18.75
2019-05-06T17:45:28.228Z,20.12
2019-05-06T17:47:58.582Z,19.42
2019-05-06T17:50:27.343Z,22.93
2019-05-06T17:52:56.162Z,22.67
2019-05-06T17:55:25.052Z,19.12
2019-05-06T17:57:53.825Z,20.25
2019-05-06T18:00:22.631Z,22.30
2019-05-06T18:02:52.880Z,19.10
2019-05-06T18:05:22.839Z,22.22
2019-05-06T18:07:51.758Z,17.50
2019-05-06T18:10:22.136Z,21.40
2019-05-06T18:12:53.109Z,24.55
2019-05-06T18:15:22.565Z,26.55
2019-05-06T18:17:52.484Z,19.73
2019-05-06T18:20:22.148Z,18.15
2019-05-06T18:22:52.479Z,19.85
2019-05-06T18:25:23.015Z,18.23
2019-05-06T18:27:52.680Z,19.82
2019-05-06T18:30:26.911Z,21.65
2019-05-06T18:32:52.094Z,19.32
2019-05-06T18:35:22.950Z,19.37
2019-05-06T18:37:52.155Z,25.72
2019-05-06T18:40:23.089Z,20.23
2019-05-06T18:42:52.505Z,20.52
2019-05-06T18:45:22.055Z,17.15
2019-05-06T18:47:53.039Z,18.32
2019-05-06T18:50:22.089Z,18.15
2019-05-06T18:52:52.868Z,15.80
2019-05-06T18:55:22.386Z,15.15
2019-05-06T18:57:52.808Z,18.23
2019-05-06T19:00:22.411Z,22.15
2019-05-06T19:02:52.213Z,17.30
2019-05-06T19:05:26.496Z,14.20
2019-05-06T19:07:53.131Z,15.78
2019-05-06T19:10:23.877Z,15.30
2019-05-06T19:12:52.852Z,14.38
2019-05-06T19:15:22.047Z,12.73
2019-05-06T19:17:52.643Z,15.43
2019-05-06T19:20:22.237Z,15.48
2019-05-06T19:22:53.523Z,14.68
2019-05-06T19:25:22.764Z,18.50
2019-05-06T19:27:53.124Z,13.62
2019-05-06T19:30:22.567Z,13.85
2019-05-06T19:32:53.091Z,15.03
2019-05-06T19:35:21.907Z,13.65
2019-05-06T19:37:50.688Z,14.63
2019-05-06T19:40:19.466Z,14.60
2019-05-06T19:42:50.259Z,14.05
2019-05-06T19:45:18.640Z,14.05
2019-05-06T19:47:47.413Z,11.25
2019-05-06T19:50:16.190Z,13.28
2019-05-06T19:52:44.948Z,13.90
2019-05-06T19:55:13.741Z,19.98
2019-05-06T19:57:43.108Z,14.03
2019-05-06T20:00:12.484Z,14.40
2019-05-06T20:02:42.950Z,14.38
2019-05-06T20:05:19.717Z,15.32
2019-05-06T20:07:52.038Z,12.03
2019-05-06T20:10:27.739Z,15.53
2019-05-06T20:13:02.652Z,12.78
2019-05-06T20:15:38.169Z,11.12
2019-05-06T20:18:07.732Z,13.93
2019-05-06T20:20:37.015Z,24.47
2019-05-06T20:23:05.771Z,11.38
2019-05-06T20:25:36.937Z,13.58
2019-05-06T20:28:05.360Z,10.75
2019-05-06T20:30:34.147Z,10.85
2019-05-06T20:33:02.918Z,12.10
2019-05-06T20:35:32.402Z,10.03
2019-05-06T20:38:02.765Z,12.03
2019-05-06T20:40:32.655Z,12.45
2019-05-06T20:43:14.165Z,11.55
2019-05-06T20:45:35.088Z,10.72
2019-05-06T20:48:03.248Z,12.40
2019-05-06T20:50:32.324Z,9.28
2019-05-06T20:53:01.125Z,12.07
2019-05-06T20:55:34.788Z,12.15
2019-05-06T20:58:02.546Z,10.72
2019-05-06T21:00:33.278Z,10.35
2019-05-06T21:03:01.213Z,12.73
2019-05-06T21:05:32.203Z,10.58
2019-05-06T21:08:02.183Z,11.25
2019-05-06T21:10:32.823Z,12.55
2019-05-06T21:13:02.341Z,11.68
2019-05-06T21:15:32.321Z,9.40
2019-05-06T21:18:04.146Z,9.23
2019-05-06T21:20:33.012Z,12.33
2019-05-06T21:23:02.328Z,9.68
2019-05-06T21:25:32.152Z,12.78
2019-05-06T21:28:02.865Z,10.65
2019-05-06T21:30:32.290Z,11.15
2019-05-06T21:33:01.227Z,11.28
2019-05-06T21:35:29.997Z,10.43
2019-05-06T21:37:58.771Z,10.90
2019-05-06T21:40:27.631Z,10.10
2019-05-06T21:42:56.387Z,10.28
2019-05-06T21:45:25.162Z,9.60
2019-05-06T21:47:53.933Z,8.98
2019-05-06T21:50:22.871Z,11.65
2019-05-06T21:52:51.711Z,10.85
2019-05-06T21:55:22.552Z,9.93
2019-05-06T21:57:52.796Z,11.78
2019-05-06T22:00:23.455Z,13.30
2019-05-06T22:02:52.952Z,10.98
2019-05-06T22:05:22.704Z,9.53
2019-05-06T22:07:52.559Z,9.50
2019-05-06T22:10:22.742Z,10.40
2019-05-06T22:12:52.735Z,10.28
2019-05-06T22:15:22.806Z,10.32
2019-05-06T22:17:54.280Z,10.70
2019-05-06T22:20:23.800Z,9.93
2019-05-06T22:22:52.819Z,12.65
2019-05-06T22:25:22.101Z,11.18
2019-05-06T22:27:51.962Z,10.60
2019-05-06T22:30:23.716Z,23.27
2019-05-06T22:32:52.721Z,14.30
2019-05-06T22:35:23.109Z,10.30
2019-05-06T22:37:52.921Z,14.33
2019-05-06T22:40:23.706Z,13.53
2019-05-06T22:42:52.899Z,10.60
2019-05-06T22:45:22.281Z,12.03
2019-05-06T22:47:51.089Z,11.70
2019-05-06T22:50:19.858Z,10.23
2019-05-06T22:52:48.626Z,10.30
2019-05-06T22:55:17.598Z,11.28
2019-05-06T22:57:46.372Z,9.05
2019-05-06T23:00:22.394Z,9.88
2019-05-06T23:03:02.267Z,10.98
2019-05-06T23:05:32.576Z,8.63
2019-05-06T23:08:02.762Z,10.93
2019-05-06T23:10:33.527Z,9.78
2019-05-06T23:13:03.097Z,10.80
2019-05-06T23:15:33.970Z,9.18
2019-05-06T23:18:02.447Z,9.08
2019-05-06T23:20:32.106Z,11.85
2019-05-06T23:23:02.399Z,11.70
2019-05-06T23:25:32.661Z,9.90
2019-05-06T23:28:02.790Z,10.08
2019-05-06T23:30:33.400Z,10.88
2019-05-06T23:33:02.283Z,8.35
2019-05-06T23:35:31.059Z,9.40
2019-05-06T23:38:35.469Z,10.78
2019-05-06T23:41:42.204Z,9.83
2019-05-06T23:44:46.563Z,13.13
2019-05-06T23:47:53.132Z,8.90
2019-05-06T23:50:57.629Z,11.33
2019-05-06T23:54:03.096Z,9.83
2019-05-06T23:56:42.911Z,8.95
2019-05-06T23:59:12.613Z,9.83
